createdAt,value
2019-03-05T00:01:58.317Z,99608.78
2019-03-05T00:04:27.132Z,99611.22
2019-03-05T00:06:55.834Z,99607.23
2019-03-05T00:09:24.558Z,99614.76
2019-03-05T00:11:53.237Z,99613.70
2019-03-05T00:14:23.065Z,99612.34
2019-03-05T00:16:51.761Z,99615.58
2019-03-05T00:19:20.375Z,99616.67
2019-03-05T00:21:49.105Z,99619.90
2019-03-05T00:24:53.763Z,99616.11
2019-03-05T00:27:22.414Z,99623.66
2019-03-05T00:30:09.094Z,99631.48
2019-03-05T00:32:37.799Z,99636.33
2019-03-05T00:35:09.324Z,99635.00
2019-03-05T00:37:40.949Z,99643.87
2019-03-05T00:40:28.928Z,99639.56
2019-03-05T00:43:03.475Z,99651.11
2019-03-05T00:45:53.174Z,99641.69
2019-03-05T00:48:27.591Z,99657.28
2019-03-05T00:50:59.195Z,99658.13
2019-03-05T00:53:33.832Z,99648.18
2019-03-05T00:56:05.619Z,99657.61
2019-03-05T00:58:42.807Z,99662.70
2019-03-05T01:01:29.707Z,99665.90
2019-03-05T01:04:28.334Z,99664.55
2019-03-05T01:06:57.096Z,99667.53
2019-03-05T01:09:26.218Z,99672.63
2019-03-05T01:11:54.910Z,99671.02
2019-03-05T01:14:25.203Z,99683.88
2019-03-05T01:16:53.888Z,99680.67
2019-03-05T01:19:22.608Z,99677.70
2019-03-05T01:21:51.332Z,99678.83
2019-03-05T01:24:20.281Z,99684.25
2019-03-05T01:26:50.014Z,99688.00
2019-03-05T01:29:18.629Z,99685.06
2019-03-05T01:31:51.755Z,99663.41
2019-03-05T01:34:31.097Z,99697.16
2019-03-05T01:37:01.406Z,99700.91
2019-03-05T01:39:43.658Z,99705.70
2019-03-05T01:42:12.320Z,99701.41
2019-03-05T01:44:41.010Z,99698.66
2019-03-05T01:47:09.725Z,99703.49
2019-03-05T01:49:38.426Z,99715.59
2019-03-05T01:52:07.053Z,99712.88
2019-03-05T01:54:35.776Z,99716.09
2019-03-05T01:57:05.569Z,99701.55
2019-03-05T01:59:34.236Z,99608.36
2019-03-05T02:02:02.963Z,99754.51
2019-03-05T02:04:31.639Z,99721.98
2019-03-05T02:07:00.312Z,99719.83
2019-03-05T02:09:29.021Z,99720.61
2019-03-05T02:11:57.811Z,99724.59
2019-03-05T02:14:26.555Z,99727.55
2019-03-05T02:16:55.276Z,99727.86
2019-03-05T02:19:37.416Z,99724.32
2019-03-05T02:22:12.000Z,99724.05
2019-03-05T02:25:07.289Z,99727.80
2019-03-05T02:27:47.403Z,99727.23
2019-03-05T02:30:39.638Z,99727.48
2019-03-05T02:33:23.158Z,99729.63
2019-03-05T02:36:06.680Z,99739.32
2019-03-05T02:38:40.930Z,99731.48
2019-03-05T02:41:12.586Z,99736.82
2019-03-05T02:44:03.531Z,99738.41
2019-03-05T02:46:55.862Z,99737.08
2019-03-05T02:49:42.631Z,99738.89
2019-03-05T02:52:42.853Z,99744.20
2019-03-05T02:55:17.049Z,99731.55
2019-03-05T02:57:44.557Z,99731.40
2019-03-05T03:00:15.079Z,99732.72
2019-03-05T03:02:48.340Z,99726.80
2019-03-05T03:05:18.834Z,99725.41
2019-03-05T03:07:47.662Z,99725.91
2019-03-05T03:10:21.613Z,99730.19
2019-03-05T03:12:50.322Z,99728.58
2019-03-05T03:15:19.238Z,99729.94
2019-03-05T03:17:48.027Z,99730.75
2019-03-05T03:20:17.456Z,99728.07
2019-03-05T03:22:46.130Z,99735.09
2019-03-05T03:25:17.555Z,99741.44
2019-03-05T03:27:46.409Z,99740.11
2019-03-05T03:30:20.804Z,99736.63
2019-03-05T03:32:49.414Z,99742.78
2019-03-05T03:35:18.173Z,99751.63
2019-03-05T03:37:46.947Z,99755.28
2019-03-05T03:40:18.825Z,99755.58
2019-03-05T03:42:47.634Z,99755.84
2019-03-05T03:45:18.871Z,99758.23
2019-03-05T03:47:47.642Z,99762.77
2019-03-05T03:50:16.327Z,99769.26
2019-03-05T03:52:45.074Z,99760.95
2019-03-05T03:55:16.199Z,99762.77
2019-03-05T03:57:44.905Z,99761.11
2019-03-05T04:00:19.016Z,99760.81
2019-03-05T04:02:47.661Z,99760.81
2019-03-05T04:05:16.335Z,99768.60
2019-03-05T04:07:45.027Z,99772.67
2019-03-05T04:10:17.049Z,99768.17
2019-03-05T04:12:45.750Z,99779.20
2019-03-05T04:15:16.950Z,99778.70
2019-03-05T04:17:45.728Z,99780.02
2019-03-05T04:20:18.498Z,99784.61
2019-03-05T04:22:47.061Z,99782.53
2019-03-05T04:25:15.706Z,99787.91
2019-03-05T04:27:44.354Z,99788.36
2019-03-05T04:30:16.812Z,99788.70
2019-03-05T04:32:45.388Z,99783.06
2019-03-05T04:35:14.211Z,99789.48
2019-03-05T04:37:42.903Z,99795.45
2019-03-05T04:40:12.997Z,99801.90
2019-03-05T04:42:41.631Z,99814.12
2019-03-05T04:45:49.238Z,99815.58
2019-03-05T04:48:17.858Z,99806.86
2019-03-05T04:50:48.160Z,99819.53
2019-03-05T04:53:16.855Z,99821.48
2019-03-05T04:55:45.464Z,99822.19
2019-03-05T04:58:14.141Z,99825.08
2019-03-05T05:00:42.852Z,99835.99
2019-03-05T05:03:11.532Z,99829.11
2019-03-05T05:05:40.211Z,99827.37
2019-03-05T05:08:08.846Z,99830.22
2019-03-05T05:10:37.556Z,99819.11
2019-03-05T05:13:06.285Z,99823.47
2019-03-05T05:15:35.625Z,99838.56
2019-03-05T05:18:05.298Z,99827.42
2019-03-05T05:20:34.046Z,99749.24
2019-03-05T05:23:02.612Z,99806.00
2019-03-05T05:25:31.295Z,99822.01
2019-03-05T05:27:59.964Z,99816.87
2019-03-05T05:30:39.871Z,99829.99
2019-03-05T05:33:09.374Z,99827.16
2019-03-05T05:35:38.114Z,99837.59
2019-03-05T05:38:06.797Z,99840.05
2019-03-05T05:40:47.121Z,99836.46
2019-03-05T05:43:19.823Z,99842.59
2019-03-05T05:45:51.354Z,99850.15
2019-03-05T05:48:20.192Z,99846.11
2019-03-05T05:50:49.026Z,99851.59
2019-03-05T05:53:18.303Z,99852.33
2019-03-05T05:55:47.003Z,99842.70
2019-03-05T05:58:16.513Z,99849.35
2019-03-05T06:00:52.906Z,99845.81
2019-03-05T06:03:22.681Z,99844.77
2019-03-05T06:05:51.766Z,99847.72
2019-03-05T06:08:21.388Z,99855.10
2019-03-05T06:10:52.777Z,99775.95
2019-03-05T06:13:20.596Z,99856.32
2019-03-05T06:15:49.345Z,99855.41
2019-03-05T06:18:17.922Z,99865.44
2019-03-05T06:20:46.725Z,99861.63
2019-03-05T06:23:15.559Z,99859.69
2019-03-05T06:25:44.207Z,99863.57
2019-03-05T06:28:12.883Z,99862.28
2019-03-05T06:30:44.807Z,99874.22
2019-03-05T06:33:13.639Z,99872.89
2019-03-05T06:35:42.356Z,99880.96
2019-03-05T06:38:11.052Z,99887.74
2019-03-05T06:40:39.787Z,99891.93
2019-03-05T06:43:08.454Z,99885.59
2019-03-05T06:45:37.225Z,99893.27
2019-03-05T06:48:05.923Z,99889.98
2019-03-05T06:50:34.717Z,99891.84
2019-03-05T06:53:03.462Z,99897.67
2019-03-05T06:55:32.240Z,99895.55
2019-03-05T06:58:00.876Z,99894.34
2019-03-05T07:00:35.204Z,99896.16
2019-03-05T07:03:06.193Z,99899.23
2019-03-05T07:06:11.089Z,99915.41
2019-03-05T07:08:42.679Z,99909.06
2019-03-05T07:11:33.772Z,99917.70
2019-03-05T07:14:11.262Z,99914.22
2019-03-05T07:16:54.739Z,99922.11
2019-03-05T07:19:26.259Z,99919.08
2019-03-05T07:22:00.734Z,99921.18
2019-03-05T07:24:48.811Z,99927.53
2019-03-05T07:28:46.395Z,99934.59
2019-03-05T07:31:15.106Z,99935.81
2019-03-05T07:33:43.872Z,99944.41
2019-03-05T07:36:12.672Z,99954.10
2019-03-05T07:38:41.412Z,99950.14
2019-03-05T07:41:10.156Z,99960.37
2019-03-05T07:43:38.952Z,99953.83
2019-03-05T07:46:07.688Z,99962.02
2019-03-05T07:48:36.344Z,99967.15
2019-03-05T07:51:05.242Z,99970.42
2019-03-05T07:53:34.098Z,99989.70
2019-03-05T07:56:02.845Z,99975.41
2019-03-05T07:58:31.509Z,99976.30
2019-03-05T08:01:00.248Z,99978.49
2019-03-05T08:03:28.962Z,99976.41
2019-03-05T08:05:57.831Z,99983.25
2019-03-05T08:09:02.673Z,99989.99
2019-03-05T08:11:31.927Z,99994.79
2019-03-05T08:14:03.937Z,100001.12
2019-03-05T08:16:32.695Z,100012.31
2019-03-05T08:19:01.614Z,100011.80
2019-03-05T08:21:30.347Z,100017.81
2019-03-05T08:23:59.047Z,100022.23
2019-03-05T08:26:27.783Z,100024.63
2019-03-05T08:28:56.754Z,100032.67
2019-03-05T08:31:25.437Z,100022.25
2019-03-05T08:33:54.170Z,100019.51
2019-03-05T08:36:23.016Z,100022.80
2019-03-05T08:38:51.664Z,100043.02
2019-03-05T08:41:20.401Z,100041.41
2019-03-05T08:43:49.058Z,100050.58
2019-03-05T08:46:17.756Z,99954.20
2019-03-05T08:48:46.517Z,100057.39
2019-03-05T08:51:15.200Z,100053.05
2019-03-05T08:53:49.503Z,100062.64
2019-03-05T08:56:14.419Z,100048.02
2019-03-05T08:58:43.131Z,100048.02
2019-03-05T09:01:11.883Z,100063.25
2019-03-05T09:03:40.581Z,100062.20
2019-03-05T09:06:09.409Z,100056.67
2019-03-05T09:08:38.606Z,100076.33
2019-03-05T09:11:08.319Z,100064.03
2019-03-05T09:13:36.980Z,100073.22
2019-03-05T09:16:05.811Z,100075.88
2019-03-05T09:18:34.477Z,100075.23
2019-03-05T09:21:03.231Z,100079.26
2019-03-05T09:23:31.874Z,100083.29
2019-03-05T09:26:00.591Z,100087.13
2019-03-05T09:28:29.324Z,100087.95
2019-03-05T09:30:58.173Z,100089.88
2019-03-05T09:33:26.854Z,100096.42
2019-03-05T09:35:55.574Z,100097.68
2019-03-05T09:38:24.953Z,100090.31
2019-03-05T09:40:53.610Z,100097.16
2019-03-05T09:43:22.353Z,100093.39
2019-03-05T09:45:51.045Z,100109.19
2019-03-05T09:48:19.882Z,100108.08
2019-03-05T09:50:48.532Z,100104.37
2019-03-05T09:53:17.157Z,100104.25
2019-03-05T09:55:45.833Z,100123.06
2019-03-05T09:58:14.540Z,100110.44
2019-03-05T10:00:43.280Z,100115.44
2019-03-05T10:03:12.035Z,100115.41
2019-03-05T10:05:40.762Z,100122.25
2019-03-05T10:08:10.530Z,100130.77
2019-03-05T10:10:39.163Z,100127.80
2019-03-05T10:13:08.140Z,100131.64
2019-03-05T10:15:36.871Z,100129.34
2019-03-05T10:18:12.612Z,100136.47
2019-03-05T10:20:36.955Z,100136.41
2019-03-05T10:23:06.307Z,100139.50
2019-03-05T10:25:35.041Z,100137.28
2019-03-05T10:28:03.785Z,100131.44
2019-03-05T10:30:38.063Z,100138.10
2019-03-05T10:33:08.363Z,100139.27
2019-03-05T10:35:37.227Z,100145.54
2019-03-05T10:38:07.682Z,100146.46
2019-03-05T10:40:47.458Z,100144.89
2019-03-05T10:43:19.151Z,100144.03
2019-03-05T10:45:49.471Z,100143.98
2019-03-05T10:48:23.158Z,100159.06
2019-03-05T10:50:52.421Z,100161.32
2019-03-05T10:53:22.010Z,100055.14
2019-03-05T10:55:50.671Z,100158.61
2019-03-05T10:58:19.484Z,100156.81
2019-03-05T11:00:53.916Z,100156.89
2019-03-05T11:03:25.212Z,100154.41
2019-03-05T11:05:54.246Z,100169.69
2019-03-05T11:08:25.245Z,100173.08
2019-03-05T11:10:54.870Z,100165.55
2019-03-05T11:13:23.715Z,100168.53
2019-03-05T11:15:58.199Z,100172.59
2019-03-05T11:18:29.647Z,100167.98
2019-03-05T11:20:57.404Z,100173.39
2019-03-05T11:23:26.100Z,100177.19
2019-03-05T11:25:54.863Z,100185.77
2019-03-05T11:28:23.596Z,100190.75
2019-03-05T11:30:52.486Z,100199.48
2019-03-05T11:33:22.210Z,100202.71
2019-03-05T11:35:51.826Z,100192.33
2019-03-05T11:38:20.870Z,100196.38
2019-03-05T11:40:49.474Z,100200.15
2019-03-05T11:43:18.630Z,100198.95
2019-03-05T11:45:47.332Z,100199.53
2019-03-05T11:48:17.043Z,100199.30
2019-03-05T11:50:45.999Z,100202.35
2019-03-05T11:53:14.850Z,100202.63
2019-03-05T11:55:43.508Z,100203.69
2019-03-05T11:58:12.302Z,100208.25
2019-03-05T12:00:52.082Z,100215.56
2019-03-05T12:03:20.948Z,100220.38
2019-03-05T12:05:56.905Z,100222.30
2019-03-05T12:08:25.798Z,100225.56
2019-03-05T12:10:54.481Z,100227.16
2019-03-05T12:13:23.112Z,100228.30
2019-03-05T12:15:51.841Z,100234.80
2019-03-05T12:18:20.495Z,100245.23
2019-03-05T12:20:49.177Z,100247.03
2019-03-05T12:23:17.885Z,100251.45
2019-03-05T12:25:46.581Z,100252.03
2019-03-05T12:28:15.990Z,100254.70
2019-03-05T12:30:53.883Z,100249.58
2019-03-05T12:33:22.733Z,100258.20
2019-03-05T12:35:51.694Z,100255.33
2019-03-05T12:38:20.356Z,100262.51
2019-03-05T12:40:49.087Z,100252.10
2019-03-05T12:43:17.818Z,100254.80
2019-03-05T12:45:47.425Z,100256.57
2019-03-05T12:48:16.122Z,100256.57
2019-03-05T12:50:44.831Z,100251.83
2019-03-05T12:53:15.953Z,100250.47
2019-03-05T12:55:44.158Z,100255.89
2019-03-05T12:58:12.997Z,100258.05
2019-03-05T13:00:41.731Z,100258.58
2019-03-05T13:03:10.590Z,100265.01
2019-03-05T13:05:39.331Z,100264.19
2019-03-05T13:08:08.065Z,100263.41
2019-03-05T13:10:37.670Z,100265.35
2019-03-05T13:13:06.723Z,100278.63
2019-03-05T13:15:38.133Z,100278.89
2019-03-05T13:18:06.881Z,100276.44
2019-03-05T13:20:35.663Z,100286.13
2019-03-05T13:23:09.526Z,100282.81
2019-03-05T13:25:38.175Z,100287.12
2019-03-05T13:28:06.484Z,100285.84
2019-03-05T13:30:35.354Z,100245.62
2019-03-05T13:33:05.110Z,100292.32
2019-03-05T13:35:33.858Z,100293.30
2019-03-05T13:38:07.657Z,100292.65
2019-03-05T13:40:38.527Z,100301.39
2019-03-05T13:43:07.220Z,100310.50
2019-03-05T13:45:36.166Z,100299.47
2019-03-05T13:48:19.512Z,100308.36
2019-03-05T13:51:11.723Z,100293.45
2019-03-05T13:54:09.315Z,100313.36
2019-03-05T13:56:42.382Z,100325.91
2019-03-05T13:59:21.235Z,100319.91
2019-03-05T14:01:49.928Z,100325.23
2019-03-05T14:04:39.531Z,100320.40
2019-03-05T14:07:11.841Z,100323.64
2019-03-05T14:09:39.360Z,100331.12
2019-03-05T14:12:08.004Z,100332.37
2019-03-05T14:14:36.711Z,100339.22
2019-03-05T14:17:10.317Z,100336.91
2019-03-05T14:19:39.139Z,100336.56
2019-03-05T14:22:07.915Z,100335.96
2019-03-05T14:24:36.560Z,100338.13
2019-03-05T14:27:05.469Z,100334.55
2019-03-05T14:29:34.190Z,100341.50
2019-03-05T14:32:02.954Z,100330.06
2019-03-05T14:34:31.754Z,100336.32
2019-03-05T14:37:00.527Z,100336.75
2019-03-05T14:39:32.717Z,100343.84
2019-03-05T14:42:02.634Z,100349.80
2019-03-05T14:44:39.859Z,100343.30
2019-03-05T14:47:04.623Z,100350.88
2019-03-05T14:49:33.435Z,100370.89
2019-03-05T14:52:02.080Z,100361.70
2019-03-05T14:54:30.795Z,100354.89
2019-03-05T14:56:59.552Z,100350.05
2019-03-05T14:59:28.381Z,100364.82
2019-03-05T15:01:57.169Z,100366.66
2019-03-05T15:04:26.085Z,100363.70
2019-03-05T15:06:55.024Z,100366.94
2019-03-05T15:09:23.819Z,100363.66
2019-03-05T15:11:52.492Z,100370.92
2019-03-05T15:14:21.208Z,100364.52
2019-03-05T15:16:49.919Z,100370.88
2019-03-05T15:19:21.741Z,100372.55
2019-03-05T15:21:49.161Z,100373.61
2019-03-05T15:24:17.927Z,100377.67
2019-03-05T15:26:46.690Z,100378.77
2019-03-05T15:29:15.492Z,100381.20
2019-03-05T15:31:44.228Z,100382.23
2019-03-05T15:34:12.946Z,100395.72
2019-03-05T15:36:41.791Z,100392.44
2019-03-05T15:39:10.721Z,100404.66
2019-03-05T15:41:39.532Z,100402.19
2019-03-05T15:44:10.504Z,100402.19
2019-03-05T15:46:39.388Z,100408.84
2019-03-05T15:49:08.196Z,100409.38
2019-03-05T15:51:37.121Z,100409.20
2019-03-05T15:54:05.914Z,100268.30
2019-03-05T15:56:34.651Z,100402.80
2019-03-05T15:59:03.467Z,100404.97
2019-03-05T16:01:32.609Z,100400.30
2019-03-05T16:04:01.385Z,100371.64
2019-03-05T16:06:33.736Z,100401.36
2019-03-05T16:09:02.246Z,100409.63
2019-03-05T16:11:34.082Z,100403.08
2019-03-05T16:14:01.457Z,100411.70
2019-03-05T16:16:30.319Z,100413.20
2019-03-05T16:18:59.109Z,100409.23
2019-03-05T16:21:27.873Z,100404.70
2019-03-05T16:23:56.701Z,100402.00
2019-03-05T16:26:25.506Z,100405.00
2019-03-05T16:28:54.456Z,100410.30
2019-03-05T16:31:24.836Z,100418.91
2019-03-05T16:34:13.144Z,100419.89
2019-03-05T16:36:42.296Z,100419.30
2019-03-05T16:39:16.612Z,100423.86
2019-03-05T16:41:46.937Z,100437.55
2019-03-05T16:44:36.075Z,100435.55
2019-03-05T16:47:22.977Z,100437.35
2019-03-05T16:49:53.300Z,100438.56
2019-03-05T16:52:39.641Z,100445.98
2019-03-05T16:55:28.491Z,100449.23
2019-03-05T16:58:01.762Z,100448.77
2019-03-05T17:00:48.771Z,100452.36
2019-03-05T17:03:19.139Z,100459.52
2019-03-05T17:06:05.796Z,100461.34
2019-03-05T17:08:39.155Z,100472.05
2019-03-05T17:11:19.304Z,100473.20
2019-03-05T17:13:51.449Z,100473.97
2019-03-05T17:16:29.891Z,100483.08
2019-03-05T17:18:58.899Z,100489.45
2019-03-05T17:21:28.119Z,100492.45
2019-03-05T17:23:58.896Z,100488.98
2019-03-05T17:26:28.537Z,100495.67
2019-03-05T17:28:59.177Z,100495.22
2019-03-05T17:31:28.515Z,100508.84
2019-03-05T17:33:58.084Z,100510.77
2019-03-05T17:36:26.853Z,100514.19
2019-03-05T17:38:58.603Z,100518.26
2019-03-05T17:41:28.284Z,100525.14
2019-03-05T17:43:59.863Z,100531.19
2019-03-05T17:46:35.939Z,100528.16
2019-03-05T17:49:08.179Z,100534.28
2019-03-05T17:51:40.652Z,100439.17
2019-03-05T17:54:11.696Z,100536.91
2019-03-05T17:56:43.051Z,100542.02
2019-03-05T17:59:12.709Z,100540.09
2019-03-05T18:01:43.250Z,100545.73
2019-03-05T18:04:15.544Z,100549.93
2019-03-05T18:06:49.531Z,100553.14
2019-03-05T18:09:18.675Z,100562.64
2019-03-05T18:11:47.394Z,100555.48
2019-03-05T18:14:16.131Z,100555.39
2019-03-05T18:16:45.005Z,100555.05
2019-03-05T18:19:13.665Z,100561.86
2019-03-05T18:21:42.560Z,100558.38
2019-03-05T18:24:11.287Z,100563.23
2019-03-05T18:26:44.246Z,100436.28
2019-03-05T18:29:13.109Z,100574.12
2019-03-05T18:31:41.889Z,100577.03
2019-03-05T18:34:10.601Z,100582.14
2019-03-05T18:36:39.362Z,100575.82
2019-03-05T18:39:09.123Z,100584.88
2019-03-05T18:41:37.798Z,100581.78
2019-03-05T18:44:06.471Z,100576.53
2019-03-05T18:46:35.365Z,100583.59
2019-03-05T18:49:04.925Z,100589.55
2019-03-05T18:51:33.572Z,100585.47
2019-03-05T18:54:02.195Z,100585.47
2019-03-05T18:56:31.004Z,100590.89
2019-03-05T18:58:59.673Z,100593.33
2019-03-05T19:01:28.475Z,100594.92
2019-03-05T19:03:57.131Z,100606.23
2019-03-05T19:06:25.896Z,100611.72
2019-03-05T19:08:54.719Z,100602.57
2019-03-05T19:11:23.625Z,100602.06
2019-03-05T19:13:52.277Z,100597.72
2019-03-05T19:16:21.063Z,100601.44
2019-03-05T19:18:49.620Z,100595.60
2019-03-05T19:21:18.533Z,100604.34
2019-03-05T19:23:47.239Z,100603.92
2019-03-05T19:26:16.009Z,100602.42
2019-03-05T19:28:44.840Z,100612.69
2019-03-05T19:31:13.764Z,100612.67
2019-03-05T19:33:43.779Z,100616.78
2019-03-05T19:36:12.725Z,100613.98
2019-03-05T19:38:41.478Z,100624.88
2019-03-05T19:41:10.392Z,100613.83
2019-03-05T19:43:39.459Z,100623.85
2019-03-05T19:46:08.531Z,100629.78
2019-03-05T19:48:37.536Z,100622.95
2019-03-05T19:51:06.570Z,100627.31
2019-03-05T19:53:35.577Z,100635.63
2019-03-05T19:56:05.500Z,100636.97
2019-03-05T19:58:34.391Z,100635.49
2019-03-05T20:01:04.820Z,100650.37
2019-03-05T20:03:34.036Z,100653.94
2019-03-05T20:06:03.140Z,100648.94
2019-03-05T20:08:39.479Z,100637.45
2019-03-05T20:11:02.880Z,100640.71
2019-03-05T20:13:52.837Z,100645.02
2019-03-05T20:16:22.231Z,100650.63
2019-03-05T20:18:51.492Z,100648.47
2019-03-05T20:21:20.458Z,100650.22
2019-03-05T20:23:49.438Z,100491.02
2019-03-05T20:26:18.459Z,100648.67
2019-03-05T20:28:47.342Z,100650.22
2019-03-05T20:31:16.643Z,100645.39
2019-03-05T20:33:45.499Z,100649.99
2019-03-05T20:36:14.406Z,100650.11
2019-03-05T20:38:44.400Z,100652.90
2019-03-05T20:41:14.033Z,100656.64
2019-03-05T20:43:43.954Z,100654.83
2019-03-05T20:46:15.577Z,100656.56
2019-03-05T20:48:48.224Z,100653.30
2019-03-05T20:51:16.927Z,100659.16
2019-03-05T20:53:45.760Z,100658.33
2019-03-05T20:56:14.708Z,100667.13
2019-03-05T20:58:43.391Z,100675.42
2019-03-05T21:01:12.211Z,100667.03
2019-03-05T21:03:41.008Z,100663.87
2019-03-05T21:06:09.805Z,100669.88
2019-03-05T21:08:38.722Z,100675.88
2019-03-05T21:11:07.482Z,100627.84
2019-03-05T21:13:36.238Z,100667.11
2019-03-05T21:16:05.657Z,100669.45
2019-03-05T21:18:34.462Z,100633.09
2019-03-05T21:21:03.505Z,100666.42
2019-03-05T21:23:32.571Z,100662.84
2019-03-05T21:26:01.689Z,100659.94
2019-03-05T21:28:31.024Z,100658.72
2019-03-05T21:31:00.571Z,100669.73
2019-03-05T21:33:29.350Z,100664.46
2019-03-05T21:35:57.999Z,100663.67
2019-03-05T21:38:26.688Z,100663.14
2019-03-05T21:40:55.461Z,100663.73
2019-03-05T21:43:24.148Z,100660.45
2019-03-05T21:45:56.084Z,100664.04
2019-03-05T21:48:24.835Z,100660.94
2019-03-05T21:50:53.538Z,100667.31
2019-03-05T21:53:22.285Z,100670.50
2019-03-05T21:55:50.948Z,100675.51
2019-03-05T21:58:20.503Z,100676.67
2019-03-05T22:00:49.149Z,100615.66
2019-03-05T22:03:17.883Z,100681.28
2019-03-05T22:05:46.635Z,100691.58
2019-03-05T22:08:15.398Z,100683.88
2019-03-05T22:10:44.104Z,100685.38
2019-03-05T22:13:12.841Z,100679.91
2019-03-05T22:15:42.663Z,100679.68
2019-03-05T22:18:11.503Z,100679.77
2019-03-05T22:20:40.255Z,100682.75
2019-03-05T22:23:08.991Z,100684.01
2019-03-05T22:25:37.793Z,100678.42
2019-03-05T22:28:06.591Z,100676.58
2019-03-05T22:30:37.871Z,100674.41
2019-03-05T22:33:06.931Z,100675.20
2019-03-05T22:35:35.672Z,100671.63
2019-03-05T22:38:05.267Z,100669.15
2019-03-05T22:40:34.038Z,100567.74
2019-03-05T22:43:02.713Z,100674.73
2019-03-05T22:45:35.252Z,100673.08
2019-03-05T22:48:04.066Z,100670.92
2019-03-05T22:50:32.786Z,100668.16
2019-03-05T22:53:01.435Z,100665.48
2019-03-05T22:55:30.160Z,100659.62
2019-03-05T22:57:58.988Z,100660.05
2019-03-05T23:00:44.083Z,100657.37
2019-03-05T23:03:18.463Z,100658.13
2019-03-05T23:05:49.015Z,100659.23
2019-03-05T23:08:18.660Z,100664.46
2019-03-05T23:10:48.288Z,100669.03
2019-03-05T23:13:19.288Z,100664.82
2019-03-05T23:15:48.023Z,100666.16
2019-03-05T23:18:16.954Z,100661.59
2019-03-05T23:20:45.630Z,100665.25
2019-03-05T23:23:14.399Z,100661.52
2019-03-05T23:25:43.163Z,100661.17
2019-03-05T23:28:11.892Z,100661.99
2019-03-05T23:30:41.048Z,100659.39
2019-03-05T23:33:09.775Z,100655.34
2019-03-05T23:35:38.504Z,100650.14
2019-03-05T23:38:07.308Z,100643.66
2019-03-05T23:40:36.836Z,100638.27
2019-03-05T23:43:06.577Z,100641.09
2019-03-05T23:45:35.941Z,100631.77
2019-03-05T23:48:05.038Z,100636.99
2019-03-05T23:50:33.904Z,100604.51
2019-03-05T23:53:02.646Z,100634.31
2019-03-05T23:55:31.441Z,100624.51
2019-03-05T23:58:00.091Z,100623.02
